sensor_id;sensor_type;location;lat;lon;timestamp;pressure;altitude;pressure_sealevel;temperature;humidity
51245;BME280;37840;47.562;18.738;2023-01-29T00:01:29;100445.09;;;1.22;75.78
51245;BME280;37840;47.562;18.738;2023-01-29T00:03:56;100441.66;;;1.20;75.62
51245;BME280;37840;47.562;18.738;2023-01-29T00:06:22;100448.66;;;1.19;75.68
51245;BME280;37840;47.562;18.738;2023-01-29T00:08:48;100446.13;;;1.15;75.82
51245;BME280;37840;47.562;18.738;2023-01-29T00:11:15;100447.94;;;1.13;75.92
51245;BME280;37840;47.562;18.738;2023-01-29T00:13:45;100445.31;;;1.13;75.92
51245;BME280;37840;47.562;18.738;2023-01-29T00:16:12;100443.66;;;1.07;76.06
51245;BME280;37840;47.562;18.738;2023-01-29T00:18:39;100448.09;;;1.04;76.14
51245;BME280;37840;47.562;18.738;2023-01-29T00:21:16;100456.88;;;1.02;76.17
51245;BME280;37840;47.562;18.738;2023-01-29T00:23:42;100458.56;;;1.04;76.17
51245;BME280;37840;47.562;18.738;2023-01-29T00:26:09;100456.91;;;0.99;76.19
51245;BME280;37840;47.562;18.738;2023-01-29T00:28:36;100463.09;;;0.95;76.24
51245;BME280;37840;47.562;18.738;2023-01-29T00:31:17;100464.09;;;0.90;76.49
51245;BME280;37840;47.562;18.738;2023-01-29T00:33:43;100457.03;;;0.93;76.34
51245;BME280;37840;47.562;18.738;2023-01-29T00:36:11;100462.34;;;0.90;76.39
51245;BME280;37840;47.562;18.738;2023-01-29T00:38:38;100464.03;;;0.93;76.17
51245;BME280;37840;47.562;18.738;2023-01-29T00:41:12;100464.88;;;0.93;76.02
51245;BME280;37840;47.562;18.738;2023-01-29T00:43:57;100464.88;;;0.93;75.80
51245;BME280;37840;47.562;18.738;2023-01-29T00:46:41;100466.75;;;0.87;75.89
51245;BME280;37840;47.562;18.738;2023-01-29T00:49:08;100464.19;;;0.85;76.13
51245;BME280;37840;47.562;18.738;2023-01-29T00:51:35;100464.22;;;0.84;76.19
51245;BME280;37840;47.562;18.738;2023-01-29T00:54:01;100461.53;;;0.87;76.27
51245;BME280;37840;47.562;18.738;2023-01-29T00:56:32;100464.16;;;0.87;76.26
51245;BME280;37840;47.562;18.738;2023-01-29T00:58:58;100471.16;;;0.86;76.18
51245;BME280;37840;47.562;18.738;2023-01-29T01:01:24;100464.16;;;0.87;75.94
51245;BME280;37840;47.562;18.738;2023-01-29T01:04:10;100460.69;;;0.85;75.92
51245;BME280;37840;47.562;18.738;2023-01-29T01:06:37;100465.91;;;0.86;75.60
51245;BME280;37840;47.562;18.738;2023-01-29T01:09:04;100471.16;;;0.85;75.56
51245;BME280;37840;47.562;18.738;2023-01-29T01:11:49;100468.66;;;0.80;75.48
51245;BME280;37840;47.562;18.738;2023-01-29T01:14:17;100470.50;;;0.75;75.57
51245;BME280;37840;47.562;18.738;2023-01-29T01:16:44;100461.81;;;0.73;75.76
51245;BME280;37840;47.562;18.738;2023-01-29T01:19:11;100472.22;;;0.74;75.75
51245;BME280;37840;47.562;18.738;2023-01-29T01:21:38;100465.31;;;0.72;75.66
51245;BME280;37840;47.562;18.738;2023-01-29T01:24:05;100471.34;;;0.75;75.48
51245;BME280;37840;47.562;18.738;2023-01-29T01:26:31;100477.47;;;0.74;75.34
51245;BME280;37840;47.562;18.738;2023-01-29T01:28:58;100474.03;;;0.72;75.13
51245;BME280;37840;47.562;18.738;2023-01-29T01:31:24;100477.56;;;0.70;75.34
51245;BME280;37840;47.562;18.738;2023-01-29T01:33:50;100475.00;;;0.68;75.34
51245;BME280;37840;47.562;18.738;2023-01-29T01:36:16;100473.22;;;0.69;75.61
51245;BME280;37840;47.562;18.738;2023-01-29T01:38:43;100479.31;;;0.69;75.80
51245;BME280;37840;47.562;18.738;2023-01-29T01:41:11;100474.16;;;0.66;75.94
51245;BME280;37840;47.562;18.738;2023-01-29T01:44:00;100479.41;;;0.66;76.16
51245;BME280;37840;47.562;18.738;2023-01-29T01:46:31;100474.19;;;0.65;76.21
51245;BME280;37840;47.562;18.738;2023-01-29T01:49:10;100475.06;;;0.64;76.34
51245;BME280;37840;47.562;18.738;2023-01-29T01:51:42;100466.44;;;0.58;76.33
51245;BME280;37840;47.562;18.738;2023-01-29T01:54:28;100475.19;;;0.57;76.41
51245;BME280;37840;47.562;18.738;2023-01-29T01:57:03;100475.31;;;0.51;76.57
51245;BME280;37840;47.562;18.738;2023-01-29T01:59:37;100483.09;;;0.54;76.49
51245;BME280;37840;47.562;18.738;2023-01-29T02:02:04;100485.81;;;0.48;76.64
51245;BME280;37840;47.562;18.738;2023-01-29T02:04:50;100481.41;;;0.50;76.68
51245;BME280;37840;47.562;18.738;2023-01-29T02:07:41;100486.59;;;0.53;76.69
51245;BME280;37840;47.562;18.738;2023-01-29T02:10:29;100490.91;;;0.57;76.66
51245;BME280;37840;47.562;18.738;2023-01-29T02:12:56;100488.31;;;0.56;76.95
51245;BME280;37840;47.562;18.738;2023-01-29T02:15:22;100496.06;;;0.60;76.76
51245;BME280;37840;47.562;18.738;2023-01-29T02:17:49;100495.22;;;0.60;76.75
51245;BME280;37840;47.562;18.738;2023-01-29T02:20:24;100496.91;;;0.63;76.78
51245;BME280;37840;47.562;18.738;2023-01-29T02:23:05;100492.47;;;0.66;76.92
51245;BME280;37840;47.562;18.738;2023-01-29T02:31:23;100501.94;;;0.72;76.60
51245;BME280;37840;47.562;18.738;2023-01-29T02:34:10;100499.28;;;0.75;76.68
51245;BME280;37840;47.562;18.738;2023-01-29T02:36:46;100501.81;;;0.79;76.73
51245;BME280;37840;47.562;18.738;2023-01-29T02:39:27;100504.38;;;0.82;76.75
51245;BME280;37840;47.562;18.738;2023-01-29T02:42:00;100508.72;;;0.84;76.82
51245;BME280;37840;47.562;18.738;2023-01-29T02:44:41;100504.31;;;0.86;76.90
51245;BME280;37840;47.562;18.738;2023-01-29T02:52:54;100520.88;;;0.88;76.40
51245;BME280;37840;47.562;18.738;2023-01-29T02:57:56;100514.63;;;0.95;76.67
51245;BME280;37840;47.562;18.738;2023-01-29T03:00:29;100520.75;;;0.94;76.60
51245;BME280;37840;47.562;18.738;2023-01-29T03:05:48;100516.25;;;1.00;76.41
51245;BME280;37840;47.562;18.738;2023-01-29T03:08:26;100524.91;;;1.04;75.72
51245;BME280;37840;47.562;18.738;2023-01-29T03:11:05;100524.91;;;1.04;75.52
51245;BME280;37840;47.562;18.738;2023-01-29T03:13:42;100522.25;;;1.06;75.26
51245;BME280;37840;47.562;18.738;2023-01-29T03:18:49;100527.47;;;1.07;74.91
51245;BME280;37840;47.562;18.738;2023-01-29T03:21:31;100522.22;;;1.09;74.97
51245;BME280;37840;47.562;18.738;2023-01-29T03:24:21;100517.88;;;1.06;74.73
51245;BME280;37840;47.562;18.738;2023-01-29T03:27:09;100515.19;;;1.11;74.26
51245;BME280;37840;47.562;18.738;2023-01-29T03:29:56;100509.13;;;1.09;74.34
51245;BME280;37840;47.562;18.738;2023-01-29T03:32:43;100523.94;;;1.10;74.47
51245;BME280;37840;47.562;18.738;2023-01-29T03:35:13;100533.53;;;1.11;74.57
51245;BME280;37840;47.562;18.738;2023-01-29T03:37:47;100527.50;;;1.06;74.56
51245;BME280;37840;47.562;18.738;2023-01-29T03:40:13;100527.47;;;1.07;74.24
51245;BME280;37840;47.562;18.738;2023-01-29T03:42:58;100537.12;;;1.05;74.22
51245;BME280;37840;47.562;18.738;2023-01-29T03:45:38;100530.97;;;1.06;74.05
51245;BME280;37840;47.562;18.738;2023-01-29T03:53:46;100524.91;;;1.04;73.45
51245;BME280;37840;47.562;18.738;2023-01-29T03:56:17;100527.63;;;0.99;73.97
51245;BME280;37840;47.562;18.738;2023-01-29T03:58:47;100531.97;;;1.02;73.58
51245;BME280;37840;47.562;18.738;2023-01-29T04:01:24;100533.75;;;0.98;73.47
51245;BME280;37840;47.562;18.738;2023-01-29T04:03:57;100524.22;;;0.96;73.40
51245;BME280;37840;47.562;18.738;2023-01-29T04:06:30;100527.72;;;0.95;73.61
51245;BME280;37840;47.562;18.738;2023-01-29T04:09:15;100530.41;;;0.90;73.82
51245;BME280;37840;47.562;18.738;2023-01-29T04:11:49;100527.91;;;0.86;74.25
51245;BME280;37840;47.562;18.738;2023-01-29T04:14:18;100524.41;;;0.85;74.65
51245;BME280;37840;47.562;18.738;2023-01-29T04:16:47;100528.78;;;0.85;75.04
51245;BME280;37840;47.562;18.738;2023-01-29T04:19:16;100528.00;;;0.79;75.60
51245;BME280;37840;47.562;18.738;2023-01-29T04:21:43;100524.59;;;0.74;75.86
51245;BME280;37840;47.562;18.738;2023-01-29T04:24:11;100526.34;;;0.75;76.20
51245;BME280;37840;47.562;18.738;2023-01-29T04:27:08;100523.72;;;0.75;76.51
51245;BME280;37840;47.562;18.738;2023-01-29T04:32:41;100523.81;;;0.69;76.97
51245;BME280;37840;47.562;18.738;2023-01-29T04:35:25;100515.09;;;0.70;77.27
51245;BME280;37840;47.562;18.738;2023-01-29T04:38:00;100520.28;;;0.72;77.00
51245;BME280;37840;47.562;18.738;2023-01-29T04:40:49;100521.22;;;0.68;77.26
51245;BME280;37840;47.562;18.738;2023-01-29T04:43:37;100530.03;;;0.64;77.70
51245;BME280;37840;47.562;18.738;2023-01-29T04:46:18;100527.50;;;0.59;78.06
51245;BME280;37840;47.562;18.738;2023-01-29T04:51:35;100530.81;;;0.69;78.10
51245;BME280;37840;47.562;18.738;2023-01-29T04:54:33;100532.50;;;0.73;77.79
51245;BME280;37840;47.562;18.738;2023-01-29T04:57:26;100528.03;;;0.78;77.79
51245;BME280;37840;47.562;18.738;2023-01-29T05:00:11;100528.00;;;0.79;77.43
51245;BME280;37840;47.562;18.738;2023-01-29T05:02:40;100520.16;;;0.79;77.43
51245;BME280;37840;47.562;18.738;2023-01-29T05:05:09;100520.97;;;0.83;77.40
51245;BME280;37840;47.562;18.738;2023-01-29T05:07:38;100526.13;;;0.86;77.17
51245;BME280;37840;47.562;18.738;2023-01-29T05:10:07;100521.72;;;0.88;77.20
51245;BME280;37840;47.562;18.738;2023-01-29T05:12:35;100524.38;;;0.87;77.10
51245;BME280;37840;47.562;18.738;2023-01-29T05:15:04;100520.03;;;0.86;77.10
51245;BME280;37840;47.562;18.738;2023-01-29T05:17:33;100525.28;;;0.86;76.93
51245;BME280;37840;47.562;18.738;2023-01-29T05:19:59;100522.69;;;0.84;77.08
51245;BME280;37840;47.562;18.738;2023-01-29T05:22:25;100525.28;;;0.86;76.98
51245;BME280;37840;47.562;18.738;2023-01-29T05:24:51;100522.69;;;0.84;76.92
51245;BME280;37840;47.562;18.738;2023-01-29T05:27:21;100521.84;;;0.82;77.07
51245;BME280;37840;47.562;18.738;2023-01-29T05:30:08;100526.22;;;0.81;77.19
51245;BME280;37840;47.562;18.738;2023-01-29T05:32:35;100527.03;;;0.85;77.19
51245;BME280;37840;47.562;18.738;2023-01-29T05:35:00;100525.31;;;0.82;77.01
51245;BME280;37840;47.562;18.738;2023-01-29T05:37:26;100531.47;;;0.80;77.10
51245;BME280;37840;47.562;18.738;2023-01-29T05:39:52;100531.47;;;0.80;77.12
51245;BME280;37840;47.562;18.738;2023-01-29T05:42:18;100544.53;;;0.83;77.00
51245;BME280;37840;47.562;18.738;2023-01-29T05:44:44;100547.94;;;0.87;76.92
51245;BME280;37840;47.562;18.738;2023-01-29T05:47:10;100541.81;;;0.88;76.84
51245;BME280;37840;47.562;18.738;2023-01-29T05:49:36;100559.22;;;0.90;76.68
51245;BME280;37840;47.562;18.738;2023-01-29T05:52:02;100557.44;;;0.92;76.53
51245;BME280;37840;47.562;18.738;2023-01-29T05:54:28;100559.16;;;0.93;76.41
51245;BME280;37840;47.562;18.738;2023-01-29T05:56:54;100558.25;;;0.96;76.21
51245;BME280;37840;47.562;18.738;2023-01-29T05:59:20;100559.13;;;0.96;76.18
51245;BME280;37840;47.562;18.738;2023-01-29T06:01:46;100563.44;;;0.99;76.02
51245;BME280;37840;47.562;18.738;2023-01-29T06:04:12;100568.66;;;1.00;75.93
51245;BME280;37840;47.562;18.738;2023-01-29T06:06:37;100569.44;;;1.04;75.59
51245;BME280;37840;47.562;18.738;2023-01-29T06:09:03;100563.31;;;1.05;75.53
51245;BME280;37840;47.562;18.738;2023-01-29T06:11:29;100564.25;;;1.02;75.46
51245;BME280;37840;47.562;18.738;2023-01-29T06:13:55;100572.94;;;1.03;75.55
51245;BME280;37840;47.562;18.738;2023-01-29T06:16:21;100568.63;;;1.02;75.49
51245;BME280;37840;47.562;18.738;2023-01-29T06:18:47;100565.13;;;1.01;75.41
51245;BME280;37840;47.562;18.738;2023-01-29T06:21:13;100576.50;;;1.00;75.18
51245;BME280;37840;47.562;18.738;2023-01-29T06:23:39;100580.06;;;0.96;75.32
51245;BME280;37840;47.562;18.738;2023-01-29T06:26:09;100578.41;;;0.92;75.37
51245;BME280;37840;47.562;18.738;2023-01-29T06:28:35;100586.25;;;0.91;75.16
51245;BME280;37840;47.562;18.738;2023-01-29T06:31:03;100587.19;;;0.88;75.28
51245;BME280;37840;47.562;18.738;2023-01-29T06:33:30;100596.06;;;0.79;75.38
51245;BME280;37840;47.562;18.738;2023-01-29T06:35:57;100588.19;;;0.81;75.49
51245;BME280;37840;47.562;18.738;2023-01-29T06:38:23;100592.66;;;0.74;75.15
51245;BME280;37840;47.562;18.738;2023-01-29T06:40:50;100595.41;;;0.68;75.53
51245;BME280;37840;47.562;18.738;2023-01-29T06:43:16;100591.03;;;0.69;75.93
51245;BME280;37840;47.562;18.738;2023-01-29T06:45:53;100595.34;;;0.70;74.92
51245;BME280;37840;47.562;18.738;2023-01-29T06:48:19;100597.19;;;0.66;74.96
51245;BME280;37840;47.562;18.738;2023-01-29T06:50:46;100593.75;;;0.61;74.92
51245;BME280;37840;47.562;18.738;2023-01-29T06:53:12;100604.28;;;0.58;75.25
51245;BME280;37840;47.562;18.738;2023-01-29T06:55:38;100602.53;;;0.58;75.20
51245;BME280;37840;47.562;18.738;2023-01-29T06:58:05;100597.28;;;0.60;74.78
51245;BME280;37840;47.562;18.738;2023-01-29T07:00:32;100596.37;;;0.59;74.93
51245;BME280;37840;47.562;18.738;2023-01-29T07:02:58;100591.25;;;0.55;74.74
51245;BME280;37840;47.562;18.738;2023-01-29T07:05:24;100599.97;;;0.55;74.50
51245;BME280;37840;47.562;18.738;2023-01-29T07:07:49;100607.84;;;0.52;74.71
51245;BME280;37840;47.562;18.738;2023-01-29T07:10:15;100606.09;;;0.53;74.82
51245;BME280;37840;47.562;18.738;2023-01-29T07:12:41;100607.03;;;0.50;75.01
51245;BME280;37840;47.562;18.738;2023-01-29T07:15:08;100602.66;;;0.51;74.80
51245;BME280;37840;47.562;18.738;2023-01-29T07:17:34;100605.22;;;0.54;74.47
51245;BME280;37840;47.562;18.738;2023-01-29T07:20:00;100600.00;;;0.54;74.57
51245;BME280;37840;47.562;18.738;2023-01-29T07:22:25;100588.53;;;0.59;74.24
51245;BME280;37840;47.562;18.738;2023-01-29T07:24:51;100592.06;;;0.58;74.17
51245;BME280;37840;47.562;18.738;2023-01-29T07:27:17;100591.25;;;0.55;74.28
51245;BME280;37840;47.562;18.738;2023-01-29T07:29:43;100584.28;;;0.55;74.60
51245;BME280;37840;47.562;18.738;2023-01-29T07:32:09;100582.50;;;0.57;74.24
51245;BME280;37840;47.562;18.738;2023-01-29T07:34:35;100589.47;;;0.57;74.13
51245;BME280;37840;47.562;18.738;2023-01-29T07:37:01;100588.53;;;0.61;74.29
51245;BME280;37840;47.562;18.738;2023-01-29T07:39:27;100584.09;;;0.66;73.80
51245;BME280;37840;47.562;18.738;2023-01-29T07:41:53;100577.88;;;0.72;73.53
51245;BME280;37840;47.562;18.738;2023-01-29T07:44:19;100574.47;;;0.68;73.46
51245;BME280;37840;47.562;18.738;2023-01-29T07:46:45;100574.31;;;0.74;73.27
51245;BME280;37840;47.562;18.738;2023-01-29T07:49:11;100575.16;;;0.76;72.20
51245;BME280;37840;47.562;18.738;2023-01-29T07:51:37;100572.63;;;0.73;71.84
51245;BME280;37840;47.562;18.738;2023-01-29T07:54:03;100559.66;;;0.66;71.89
51245;BME280;37840;47.562;18.738;2023-01-29T07:56:29;100561.38;;;0.68;72.05
51245;BME280;37840;47.562;18.738;2023-01-29T07:58:55;100556.19;;;0.64;72.45
51245;BME280;37840;47.562;18.738;2023-01-29T08:01:21;100578.91;;;0.63;72.55
51245;BME280;37840;47.562;18.738;2023-01-29T08:03:47;100585.06;;;0.60;72.71
51245;BME280;37840;47.562;18.738;2023-01-29T08:06:12;100587.66;;;0.62;72.58
51245;BME280;37840;47.562;18.738;2023-01-29T08:08:38;100593.69;;;0.66;72.60
51245;BME280;37840;47.562;18.738;2023-01-29T08:11:04;100592.00;;;0.61;72.41
51245;BME280;37840;47.562;18.738;2023-01-29T08:13:31;100598.06;;;0.64;72.25
51245;BME280;37840;47.562;18.738;2023-01-29T08:16:01;100601.62;;;0.59;71.96
51245;BME280;37840;47.562;18.738;2023-01-29T08:18:28;100599.00;;;0.61;72.13
51245;BME280;37840;47.562;18.738;2023-01-29T08:20:59;100610.31;;;0.61;72.40
51245;BME280;37840;47.562;18.738;2023-01-29T08:23:25;100609.44;;;0.63;72.36
51245;BME280;37840;47.562;18.738;2023-01-29T08:25:51;100613.78;;;0.64;72.50
51245;BME280;37840;47.562;18.738;2023-01-29T08:28:17;100606.81;;;0.64;72.24
51245;BME280;37840;47.562;18.738;2023-01-29T08:30:43;100611.97;;;0.69;71.83
51245;BME280;37840;47.562;18.738;2023-01-29T08:33:10;100616.34;;;0.68;71.74
51245;BME280;37840;47.562;18.738;2023-01-29T08:35:36;100618.84;;;0.74;71.69
51245;BME280;37840;47.562;18.738;2023-01-29T08:38:03;100628.44;;;0.74;71.46
51245;BME280;37840;47.562;18.738;2023-01-29T08:40:32;100631.97;;;0.73;70.92
51245;BME280;37840;47.562;18.738;2023-01-29T08:42:59;100637.16;;;0.74;71.22
51245;BME280;37840;47.562;18.738;2023-01-29T08:45:25;100631.97;;;0.73;70.61
51245;BME280;37840;47.562;18.738;2023-01-29T08:47:51;100635.53;;;0.69;70.25
51245;BME280;37840;47.562;18.738;2023-01-29T08:50:17;100635.56;;;0.66;70.73
51245;BME280;37840;47.562;18.738;2023-01-29T08:52:43;100636.53;;;0.60;71.03
51245;BME280;37840;47.562;18.738;2023-01-29T08:55:10;100640.87;;;0.59;71.08
51245;BME280;37840;47.562;18.738;2023-01-29T08:57:37;100645.31;;;0.56;71.02
51245;BME280;37840;47.562;18.738;2023-01-29T09:00:04;100649.69;;;0.55;70.78
51245;BME280;37840;47.562;18.738;2023-01-29T09:02:31;100647.13;;;0.52;70.69
51245;BME280;37840;47.562;18.738;2023-01-29T09:04:57;100654.13;;;0.50;70.60
51245;BME280;37840;47.562;18.738;2023-01-29T09:07:23;100651.50;;;0.50;70.37
51245;BME280;37840;47.562;18.738;2023-01-29T09:09:49;100649.75;;;0.51;70.15
51245;BME280;37840;47.562;18.738;2023-01-29T09:12:15;100657.66;;;0.49;70.31
51245;BME280;37840;47.562;18.738;2023-01-29T09:14:40;100654.97;;;0.52;70.71
51245;BME280;37840;47.562;18.738;2023-01-29T09:17:06;100654.09;;;0.53;70.43
51245;BME280;37840;47.562;18.738;2023-01-29T09:19:32;100658.44;;;0.54;70.90
51245;BME280;37840;47.562;18.738;2023-01-29T09:21:58;100649.69;;;0.55;71.01
51245;BME280;37840;47.562;18.738;2023-01-29T09:24:24;100653.16;;;0.57;70.33
51245;BME280;37840;47.562;18.738;2023-01-29T09:26:50;100650.47;;;0.60;70.13
51245;BME280;37840;47.562;18.738;2023-01-29T09:29:16;100660.03;;;0.61;69.53
51245;BME280;37840;47.562;18.738;2023-01-29T09:31:42;100658.41;;;0.57;69.55
51245;BME280;37840;47.562;18.738;2023-01-29T09:34:08;100660.09;;;0.58;69.28
51245;BME280;37840;47.562;18.738;2023-01-29T09:36:33;100656.66;;;0.55;69.65
51245;BME280;37840;47.562;18.738;2023-01-29T09:38:59;100661.00;;;0.57;69.10
51245;BME280;37840;47.562;18.738;2023-01-29T09:47:01;100671.53;;;0.53;68.89
51245;BME280;37840;47.562;18.738;2023-01-29T09:49:42;100671.50;;;0.54;69.01
51245;BME280;37840;47.562;18.738;2023-01-29T09:52:24;100667.19;;;0.52;68.56
51245;BME280;37840;47.562;18.738;2023-01-29T09:57:51;100670.72;;;0.49;68.64
51245;BME280;37840;47.562;18.738;2023-01-29T10:00:33;100671.59;;;0.50;68.11
51245;BME280;37840;47.562;18.738;2023-01-29T10:17:55;100671.59;;;0.48;68.21
51245;BME280;37840;47.562;18.738;2023-01-29T10:25:15;100667.19;;;0.53;67.99
51245;BME280;37840;47.562;18.738;2023-01-29T10:27:48;100661.06;;;0.53;68.10
51245;BME280;37840;47.562;18.738;2023-01-29T10:30:30;100662.81;;;0.51;68.31
51245;BME280;37840;47.562;18.738;2023-01-29T10:33:01;100665.41;;;0.54;68.10
51245;BME280;37840;47.562;18.738;2023-01-29T10:35:34;100666.34;;;0.50;68.19
51245;BME280;37840;47.562;18.738;2023-01-29T10:52:38;100643.91;;;0.89;66.50
51245;BME280;37840;47.562;18.738;2023-01-29T10:57:59;100637.37;;;1.13;66.83
51245;BME280;37840;47.562;18.738;2023-01-29T11:00:35;100631.88;;;1.27;65.44
51245;BME280;37840;47.562;18.738;2023-01-29T11:03:21;100630.00;;;1.34;63.84
51245;BME280;37840;47.562;18.738;2023-01-29T11:06:10;100635.28;;;1.32;62.54
51245;BME280;37840;47.562;18.738;2023-01-29T11:08:55;100633.63;;;1.27;63.01
51245;BME280;37840;47.562;18.738;2023-01-29T11:11:32;100632.81;;;1.23;62.83
51245;BME280;37840;47.562;18.738;2023-01-29T11:14:01;100621.56;;;1.18;62.54
51245;BME280;37840;47.562;18.738;2023-01-29T11:16:42;100616.53;;;1.09;62.85
51245;BME280;37840;47.562;18.738;2023-01-29T11:19:09;100606.16;;;1.02;62.83
51245;BME280;37840;47.562;18.738;2023-01-29T11:21:58;100597.50;;;0.97;61.92
51245;BME280;37840;47.562;18.738;2023-01-29T11:24:26;100599.25;;;0.97;63.16
51245;BME280;37840;47.562;18.738;2023-01-29T11:26:58;100601.03;;;0.96;63.00
51245;BME280;37840;47.562;18.738;2023-01-29T11:31:59;100582.63;;;0.99;63.22
51245;BME280;37840;47.562;18.738;2023-01-29T11:34:27;100586.19;;;0.95;63.49
51245;BME280;37840;47.562;18.738;2023-01-29T11:37:03;100585.44;;;0.89;62.67
51245;BME280;37840;47.562;18.738;2023-01-29T11:39:30;100587.28;;;0.84;62.92
51245;BME280;37840;47.562;18.738;2023-01-29T11:42:01;100578.50;;;0.86;63.45
51245;BME280;37840;47.562;18.738;2023-01-29T11:47:20;100569.50;;;1.01;61.88
51245;BME280;37840;47.562;18.738;2023-01-29T11:49:55;100561.56;;;1.06;62.21
51245;BME280;37840;47.562;18.738;2023-01-29T11:52:33;100559.69;;;1.12;62.62
51245;BME280;37840;47.562;18.738;2023-01-29T11:55:03;100558.78;;;1.15;61.94
51245;BME280;37840;47.562;18.738;2023-01-29T11:57:33;100563.09;;;1.17;61.20
51245;BME280;37840;47.562;18.738;2023-01-29T12:00:21;100562.16;;;1.20;61.04
51245;BME280;37840;47.562;18.738;2023-01-29T12:05:28;100543.28;;;1.46;60.33
51245;BME280;37840;47.562;18.738;2023-01-29T12:07:59;100545.75;;;1.54;60.28
51245;BME280;37840;47.562;18.738;2023-01-29T12:10:40;100540.31;;;1.63;59.98
51245;BME280;37840;47.562;18.738;2023-01-29T12:15:36;100531.19;;;1.81;59.37
51245;BME280;37840;47.562;18.738;2023-01-29T12:20:38;100535.53;;;1.80;58.91
51245;BME280;37840;47.562;18.738;2023-01-29T12:26:16;100528.37;;;1.89;58.88
51245;BME280;37840;47.562;18.738;2023-01-29T12:31:35;100529.47;;;1.78;57.90
51245;BME280;37840;47.562;18.738;2023-01-29T12:36:47;100528.03;;;1.65;57.92
51245;BME280;37840;47.562;18.738;2023-01-29T12:39:18;100523.03;;;1.53;58.23
51245;BME280;37840;47.562;18.738;2023-01-29T12:41:56;100527.56;;;1.46;58.69
51245;BME280;37840;47.562;18.738;2023-01-29T12:44:30;100529.44;;;1.41;58.60
51245;BME280;37840;47.562;18.738;2023-01-29T12:47:00;100510.34;;;1.34;58.87
51245;BME280;37840;47.562;18.738;2023-01-29T12:49:32;100515.50;;;1.37;59.41
51245;BME280;37840;47.562;18.738;2023-01-29T12:52:15;100513.72;;;1.39;58.82
51245;BME280;37840;47.562;18.738;2023-01-29T12:54:56;100503.56;;;1.24;58.13
51245;BME280;37840;47.562;18.738;2023-01-29T13:00:05;100502.03;;;1.12;59.24
51245;BME280;37840;47.562;18.738;2023-01-29T13:02:40;100496.78;;;1.14;59.40
51245;BME280;37840;47.562;18.738;2023-01-29T13:07:52;100487.03;;;1.20;58.52
51245;BME280;37840;47.562;18.738;2023-01-29T13:10:32;100483.56;;;1.20;58.67
51245;BME280;37840;47.562;18.738;2023-01-29T13:15:42;100468.56;;;1.27;59.08
51245;BME280;37840;47.562;18.738;2023-01-29T13:18:42;100465.06;;;1.28;59.79
51245;BME280;37840;47.562;18.738;2023-01-29T13:21:56;100457.87;;;1.37;60.29
51245;BME280;37840;47.562;18.738;2023-01-29T13:24:02;100458.56;;;1.46;60.03
51245;BME280;37840;47.562;18.738;2023-01-29T13:26:29;100468.06;;;1.51;60.25
51245;BME280;37840;47.562;18.738;2023-01-29T13:28:56;100456.53;;;1.58;60.47
51245;BME280;37840;47.562;18.738;2023-01-29T13:31:26;100464.41;;;1.57;60.14
51245;BME280;37840;47.562;18.738;2023-01-29T13:34:11;100466.31;;;1.50;59.54
51245;BME280;37840;47.562;18.738;2023-01-29T13:36:46;100461.34;;;1.38;59.56
51245;BME280;37840;47.562;18.738;2023-01-29T13:39:32;100466.66;;;1.35;59.77
51245;BME280;37840;47.562;18.738;2023-01-29T13:42:00;100458.78;;;1.35;60.19
51245;BME280;37840;47.562;18.738;2023-01-29T13:46:57;100452.62;;;1.37;59.57
51245;BME280;37840;47.562;18.738;2023-01-29T13:49:32;100450.84;;;1.38;60.17
51245;BME280;37840;47.562;18.738;2023-01-29T13:54:40;100456.97;;;1.38;59.55
51245;BME280;37840;47.562;18.738;2023-01-29T13:57:36;100461.31;;;1.39;59.30
51245;BME280;37840;47.562;18.738;2023-01-29T14:00:03;100464.78;;;1.40;59.33
51245;BME280;37840;47.562;18.738;2023-01-29T14:02:30;100455.19;;;1.40;57.88
51245;BME280;37840;47.562;18.738;2023-01-29T14:10:26;100465.62;;;1.42;59.26
51245;BME280;37840;47.562;18.738;2023-01-29T14:13:15;100473.47;;;1.42;59.35
51245;BME280;37840;47.562;18.738;2023-01-29T14:15:39;100478.72;;;1.42;59.27
51245;BME280;37840;47.562;18.738;2023-01-29T14:20:47;100472.66;;;1.40;58.94
51245;BME280;37840;47.562;18.738;2023-01-29T14:23:36;100468.31;;;1.39;59.10
51245;BME280;37840;47.562;18.738;2023-01-29T14:26:03;100473.59;;;1.36;59.08
51245;BME280;37840;47.562;18.738;2023-01-29T14:28:33;100476.34;;;1.31;58.94
51245;BME280;37840;47.562;18.738;2023-01-29T14:31:00;100470.38;;;1.25;59.29
51245;BME280;37840;47.562;18.738;2023-01-29T14:35:58;100464.59;;;1.09;59.50
51245;BME280;37840;47.562;18.738;2023-01-29T14:38:28;100469.06;;;1.04;60.04
51245;BME280;37840;47.562;18.738;2023-01-29T14:41:11;100479.56;;;1.02;60.52
51245;BME280;37840;47.562;18.738;2023-01-29T14:43:39;100479.66;;;0.97;61.06
51245;BME280;37840;47.562;18.738;2023-01-29T14:48:59;100473.75;;;0.88;60.60
51245;BME280;37840;47.562;18.738;2023-01-29T14:51:26;100473.75;;;0.88;60.79
51245;BME280;37840;47.562;18.738;2023-01-29T14:54:26;100473.75;;;0.86;61.34
51245;BME280;37840;47.562;18.738;2023-01-29T14:57:02;100473.66;;;0.91;61.50
51245;BME280;37840;47.562;18.738;2023-01-29T14:59:42;100477.19;;;0.90;61.39
51245;BME280;37840;47.562;18.738;2023-01-29T15:02:36;100469.47;;;0.82;61.70
51245;BME280;37840;47.562;18.738;2023-01-29T15:05:07;100467.81;;;0.78;61.19
51245;BME280;37840;47.562;18.738;2023-01-29T15:07:46;100466.94;;;0.79;61.33
51245;BME280;37840;47.562;18.738;2023-01-29T15:10:20;100467.94;;;0.72;62.06
51245;BME280;37840;47.562;18.738;2023-01-29T15:13:23;100457.53;;;0.67;61.74
51245;BME280;37840;47.562;18.738;2023-01-29T15:16:01;100461.81;;;0.73;61.69
51245;BME280;37840;47.562;18.738;2023-01-29T15:18:39;100454.84;;;0.72;61.88